LFAQLFQB

Guest
Details From LFAQ - Albert Bray
To LFQB - Troyes Barberey
Flight Number -
Tags generated
Created
Modified
Stats Distance 112 nm / 207 km
Max Altitude 11,800 ft / 3,597 m
Waypoints 3
Social Downloads 1
Likes 0
Share VATSIM

Download

Looking for another format? Having issues loading an existing format? Contact us
Advertisement - Login to hide

Notes

Basic altitude profile: - Ascent Rate: 2500ft/min - Ascent Speed: 250kts - Cruise Altitude: 35000ft - Cruise Speed: 420kts - Descent Rate: 1500ft/min - Descent Speed: 250kts

Route

LFAQ KOVIN LFQB

ID Type Via Altitude Latitude Longitude Leg Dist Tot Dist Heading (true) Name
O LFAQ APT - 0 ft / 0 m 49.97153˚ 2.69766˚ - 0 nm - Albert Bray
KOVIN FIX - 11,800 ft / 3,597 m 49.48583˚ 3.10639˚ 33 nm 33 nm 151° / 152° -
O LFQB APT - 0 ft / 0 m 48.32088˚ 4.01385˚ 78 nm 111 nm 153° / 153° Troyes Barberey

Altitude Profile

Advertisement - Login to hide

LFAQ

Details ICAO LFAQ
Name Albert Bray
Region France
Timezone Europe/Paris (UTC+1.0)
Stats Elevation 364 ft / 111 m (AMSL)
Location 49.971529° 2.697660°
Runways 1
Magnetic Variation 0.620° E

METAR

LFAQ 170300Z AUTO 29005KT 5000 BR NSC 00/00 Q1022

Decode

TAF

Not found

Departure Runways

ID Width Length Bearing (true) Bearing (mag) Surface Threshold Offset Overrun Length
09 82 ft / 25 m 3,827 ft / 1,167 m 89.92° 89.30° Asphalt 623 ft / 190 m 0 ft / 0 m
27 82 ft / 25 m 3,827 ft / 1,167 m 269.93° 269.31° Asphalt 820 ft / 250 m 0 ft / 0 m

LFQB

Details ICAO LFQB (QYR)
Name Troyes Barberey
Region France
Timezone Europe/Paris (UTC+1.0)
Stats Elevation 388 ft / 118 m (AMSL)
Location 48.320883° 4.013846°
Runways 3
Magnetic Variation 1.109° E

METAR

LFQB 170300Z AUTO VRB03KT 9999 -RA BKN014 02/01 Q1023

Decode

TAF

Not found

Destination Runways

ID Width Length Bearing (true) Bearing (mag) Surface Threshold Offset Overrun Length
05 328 ft / 100 m 2,651 ft / 808 m 51.53° 50.42° Grass 426 ft / 130 m 0 ft / 0 m
18 98 ft / 30 m 5,413 ft / 1,650 m 173.77° 172.66° Asphalt 0 ft / 0 m 0 ft / 0 m
18R 328 ft / 100 m 2,958 ft / 902 m 173.74° 172.63° Grass 0 ft / 0 m 0 ft / 0 m
23 328 ft / 100 m 2,651 ft / 808 m 231.53° 230.42° Grass 0 ft / 0 m 0 ft / 0 m
36 98 ft / 30 m 5,413 ft / 1,650 m 353.77° 352.66° Asphalt 377 ft / 115 m 0 ft / 0 m
36L 328 ft / 100 m 2,958 ft / 902 m 353.74° 352.63° Grass 0 ft / 0 m 0 ft / 0 m

Approach Navaids

Runway Type Ident Frequency Range Bearing (true) Bearing (mag) Slope Elevation
18 Localiser TY 111.15 MHz 18 nm / 33 km 173.77° 172.66° - 388 ft / 118 m (AMSL)
18 Glidescope TY 111.15 MHz 10 nm / 19 km 173.77° 172.66° 3.50° 388 ft / 118 m (AMSL)
18 DME TY 111.15 MHz 18 nm / 33 km - - - 388 ft / 118 m (AMSL)